createdAt,value
2022-11-26T00:00:57.149Z,98800.84
2022-11-26T00:03:25.198Z,98789.53
2022-11-26T00:05:57.934Z,98787.06
2022-11-26T00:08:31.437Z,98788.16
2022-11-26T00:11:01.036Z,98801.94
2022-11-26T00:13:31.360Z,98794.25
2022-11-26T00:15:59.276Z,98804.91
2022-11-26T00:18:27.437Z,98795.59
2022-11-26T00:20:57.995Z,98798.19
2022-11-26T00:23:28.514Z,98802.72
2022-11-26T00:25:58.809Z,98797.69
2022-11-26T00:28:32.975Z,98804.00
2022-11-26T00:31:03.306Z,98805.66
2022-11-26T00:33:32.816Z,98802.63
2022-11-26T00:36:04.757Z,98809.19
2022-11-26T00:38:32.960Z,98806.66
2022-11-26T00:41:00.885Z,98811.81
2022-11-26T00:43:28.837Z,98816.94
2022-11-26T00:45:58.257Z,98815.63
2022-11-26T00:48:26.231Z,98817.19
2022-11-26T00:50:54.266Z,98820.56
2022-11-26T00:53:25.429Z,98815.25
2022-11-26T00:55:53.366Z,98820.81
2022-11-26T00:58:24.943Z,98819.25
2022-11-26T01:00:53.801Z,98821.81
2022-11-26T01:03:23.166Z,98832.19
2022-11-26T01:05:52.583Z,98824.72
2022-11-26T01:08:28.741Z,98828.00
2022-11-26T01:10:56.738Z,98830.69
2022-11-26T01:13:24.772Z,98832.66
2022-11-26T01:15:52.832Z,98830.97
2022-11-26T01:18:23.578Z,98838.56
2022-11-26T01:20:52.093Z,98835.38
2022-11-26T01:23:21.050Z,98829.47
2022-11-26T01:25:49.250Z,98835.56
2022-11-26T01:28:19.621Z,98840.03
2022-11-26T01:30:48.151Z,98847.75
2022-11-26T01:33:16.103Z,98847.50
2022-11-26T01:35:45.383Z,98843.22
2022-11-26T01:38:15.733Z,98849.06
2022-11-26T01:41:03.546Z,98846.13
2022-11-26T01:43:37.509Z,98846.69
2022-11-26T01:46:14.679Z,98851.91
2022-11-26T01:48:43.054Z,98846.28
2022-11-26T01:51:13.161Z,98845.69
2022-11-26T01:53:49.164Z,98842.50
2022-11-26T01:56:34.296Z,98850.78
2022-11-26T01:59:09.426Z,98853.56
2022-11-26T02:01:37.910Z,98853.34
2022-11-26T02:04:14.320Z,98861.94
2022-11-26T02:06:46.209Z,98859.13
2022-11-26T02:09:15.298Z,98852.09
2022-11-26T02:11:43.375Z,98850.31
2022-11-26T02:14:15.682Z,98850.25
2022-11-26T02:17:10.780Z,98856.25
2022-11-26T02:19:53.753Z,98849.38
2022-11-26T02:22:43.344Z,98851.63
2022-11-26T02:25:18.648Z,98848.56
2022-11-26T02:28:07.318Z,98854.56
2022-11-26T02:30:39.056Z,98853.91
2022-11-26T02:33:12.726Z,98850.56
2022-11-26T02:35:43.728Z,98855.31
2022-11-26T02:38:14.820Z,98854.91
2022-11-26T02:40:42.870Z,98855.81
2022-11-26T02:43:10.993Z,98855.38
2022-11-26T02:45:43.619Z,98850.84
2022-11-26T02:48:15.757Z,98857.84
2022-11-26T02:50:48.445Z,98860.78
2022-11-26T02:53:21.847Z,98863.38
2022-11-26T02:55:54.905Z,98850.25
2022-11-26T02:58:22.817Z,98853.25
2022-11-26T03:00:52.697Z,98855.59
2022-11-26T03:03:26.152Z,98861.53
2022-11-26T03:05:57.364Z,98863.66
2022-11-26T03:08:26.805Z,98857.91
2022-11-26T03:10:54.821Z,98855.72
2022-11-26T03:13:22.920Z,98866.00
2022-11-26T03:15:52.213Z,98862.88
2022-11-26T03:18:20.260Z,98876.59
2022-11-26T03:20:52.154Z,98872.84
2022-11-26T03:23:20.429Z,98868.91
2022-11-26T03:25:48.518Z,98872.34
2022-11-26T03:28:17.490Z,98864.56
2022-11-26T03:30:45.400Z,98865.84
2022-11-26T03:33:14.669Z,98865.66
2022-11-26T03:35:42.608Z,98869.38
2022-11-26T03:38:10.745Z,98867.44
2022-11-26T03:40:38.673Z,98870.84
2022-11-26T03:43:06.619Z,98880.38
2022-11-26T03:45:34.564Z,98873.28
2022-11-26T03:48:02.512Z,98872.56
2022-11-26T03:50:31.786Z,98879.78
2022-11-26T03:52:59.733Z,98879.78
2022-11-26T03:55:27.781Z,98876.09
2022-11-26T03:57:55.682Z,98882.66
2022-11-26T04:00:23.766Z,98873.56
2022-11-26T04:02:52.757Z,98892.66
2022-11-26T04:05:20.800Z,98881.78
2022-11-26T04:07:50.174Z,98886.78
2022-11-26T04:10:18.449Z,98888.00
2022-11-26T04:12:46.352Z,98887.06
2022-11-26T04:15:14.296Z,98900.09
2022-11-26T04:17:42.185Z,98884.00
2022-11-26T04:20:10.809Z,98891.88
2022-11-26T04:22:38.822Z,98890.31
2022-11-26T04:25:08.886Z,98896.63
2022-11-26T04:27:36.790Z,98902.66
2022-11-26T04:30:05.446Z,98900.91
2022-11-26T04:32:33.369Z,98902.47
2022-11-26T04:35:01.391Z,98902.72
2022-11-26T04:37:29.277Z,98902.41
2022-11-26T04:39:57.198Z,98900.63
2022-11-26T04:42:26.612Z,98903.50
2022-11-26T04:44:54.539Z,98898.28
2022-11-26T04:47:22.444Z,98911.00
2022-11-26T04:49:50.342Z,98906.56
2022-11-26T04:52:18.379Z,98912.81
2022-11-26T04:54:49.636Z,98919.13
2022-11-26T04:57:17.957Z,98911.97
2022-11-26T04:59:47.237Z,98914.47
2022-11-26T05:02:15.246Z,98924.00
2022-11-26T05:04:43.306Z,98915.47
2022-11-26T05:07:11.316Z,98924.91
2022-11-26T05:09:39.367Z,98934.03
2022-11-26T05:12:07.604Z,98929.19
2022-11-26T05:14:35.962Z,98935.75
2022-11-26T05:17:05.483Z,98937.88
2022-11-26T05:19:34.237Z,98945.81
2022-11-26T05:22:02.199Z,98942.56
2022-11-26T05:24:30.142Z,98941.00
2022-11-26T05:26:58.082Z,98957.56
2022-11-26T05:29:26.723Z,98962.59
2022-11-26T05:31:54.761Z,98949.78
2022-11-26T05:34:24.069Z,98954.59
2022-11-26T05:36:51.922Z,98963.44
2022-11-26T05:39:19.842Z,98966.34
2022-11-26T05:41:47.764Z,98962.84
2022-11-26T05:44:15.934Z,98976.47
2022-11-26T05:46:44.552Z,98958.16
2022-11-26T05:49:12.436Z,98974.25
2022-11-26T05:51:41.703Z,98982.72
2022-11-26T05:54:14.205Z,98974.06
2022-11-26T05:56:43.274Z,98989.63
2022-11-26T05:59:11.661Z,98980.34
2022-11-26T06:01:39.746Z,98974.88
2022-11-26T06:04:07.740Z,98976.91
2022-11-26T06:06:35.773Z,98978.53
2022-11-26T06:09:05.479Z,98982.91
2022-11-26T06:11:33.364Z,98981.50
2022-11-26T06:14:01.268Z,98996.16
2022-11-26T06:16:29.317Z,98987.38
2022-11-26T06:18:57.743Z,98999.13
2022-11-26T06:21:25.839Z,98998.06
2022-11-26T06:23:59.096Z,99002.38
2022-11-26T06:26:29.064Z,99013.53
2022-11-26T06:28:57.138Z,99008.53
2022-11-26T06:31:25.260Z,99005.22
2022-11-26T06:33:55.273Z,99007.63
2022-11-26T06:36:23.198Z,99008.19
2022-11-26T06:38:51.292Z,99010.50
2022-11-26T06:41:19.365Z,99011.19
2022-11-26T06:43:48.690Z,99010.00
2022-11-26T06:46:16.709Z,99009.00
2022-11-26T06:48:44.734Z,99015.50
2022-11-26T06:51:14.876Z,99009.50
2022-11-26T06:53:43.284Z,99012.28
2022-11-26T06:56:19.523Z,99012.31
2022-11-26T06:58:49.793Z,99012.91
2022-11-26T07:01:20.259Z,99006.03
2022-11-26T07:03:48.672Z,99014.84
2022-11-26T07:06:18.308Z,99009.53
2022-11-26T07:08:46.728Z,99022.38
2022-11-26T07:11:15.214Z,99033.94
2022-11-26T07:13:43.188Z,99036.91
2022-11-26T07:16:13.418Z,99049.22
2022-11-26T07:18:41.584Z,99046.63
2022-11-26T07:21:11.386Z,99048.88
2022-11-26T07:23:39.924Z,99060.88
2022-11-26T07:26:09.399Z,99051.16
2022-11-26T07:28:37.988Z,99060.53
2022-11-26T07:31:12.941Z,99056.31
2022-11-26T07:33:45.710Z,99056.00
2022-11-26T07:36:16.664Z,99043.44
2022-11-26T07:38:44.760Z,99049.56
2022-11-26T07:41:15.234Z,99052.00
2022-11-26T07:43:44.386Z,99060.94
2022-11-26T07:46:15.402Z,99060.53
2022-11-26T07:48:43.520Z,99063.94
2022-11-26T07:51:18.473Z,99065.88
2022-11-26T07:53:46.513Z,99080.97
2022-11-26T07:56:14.642Z,99072.81
2022-11-26T07:58:43.099Z,99081.38
2022-11-26T08:01:13.220Z,99075.03
2022-11-26T08:03:42.158Z,99071.00
2022-11-26T08:06:11.862Z,99074.50
2022-11-26T08:08:41.904Z,99065.56
2022-11-26T08:11:13.982Z,99072.78
2022-11-26T08:13:41.970Z,99080.69
2022-11-26T08:16:10.430Z,99089.44
2022-11-26T08:18:38.427Z,99086.81
2022-11-26T08:21:06.754Z,99086.00
2022-11-26T08:23:35.266Z,99084.97
2022-11-26T08:28:56.539Z,99097.50
2022-11-26T08:31:25.029Z,99097.44
2022-11-26T08:33:53.140Z,99094.72
2022-11-26T08:36:21.131Z,99092.34
2022-11-26T08:38:49.135Z,99101.28
2022-11-26T08:41:18.471Z,99099.56
2022-11-26T08:46:34.442Z,99106.38
2022-11-26T08:49:02.658Z,99096.34
2022-11-26T08:51:30.633Z,99103.78
2022-11-26T08:53:58.595Z,99110.09
2022-11-26T08:56:27.875Z,99107.44
2022-11-26T08:58:55.822Z,99109.31
2022-11-26T09:01:25.565Z,99110.63
2022-11-26T09:03:55.237Z,99114.16
2022-11-26T09:06:24.752Z,99118.50
2022-11-26T09:09:10.497Z,99123.88
2022-11-26T09:11:41.869Z,99113.56
2022-11-26T09:14:10.997Z,99122.00
2022-11-26T09:16:39.130Z,99130.94
2022-11-26T09:19:08.651Z,99129.34
2022-11-26T09:21:37.432Z,99124.88
2022-11-26T09:24:05.959Z,99130.25
2022-11-26T09:26:34.549Z,99129.78
2022-11-26T09:29:04.572Z,99133.41
2022-11-26T09:31:32.888Z,99134.44
2022-11-26T09:34:02.219Z,99136.56
2022-11-26T09:36:30.551Z,99136.78
2022-11-26T09:39:00.485Z,99138.34
2022-11-26T09:41:39.337Z,99136.00
2022-11-26T09:44:27.422Z,99135.09
2022-11-26T09:47:13.617Z,99137.41
2022-11-26T09:49:51.691Z,99142.28
2022-11-26T09:52:23.303Z,99136.03
2022-11-26T09:54:56.225Z,99132.13
2022-11-26T09:57:31.157Z,99132.31
2022-11-26T10:00:00.533Z,99127.22
2022-11-26T10:02:28.465Z,99132.34
2022-11-26T10:04:56.416Z,99132.97
2022-11-26T10:07:40.910Z,99135.97
2022-11-26T10:10:17.863Z,99137.19
2022-11-26T10:13:26.865Z,99133.00
2022-11-26T10:15:59.636Z,99137.97
2022-11-26T10:18:38.625Z,99131.63
2022-11-26T10:21:32.586Z,99135.94
2022-11-26T10:24:18.379Z,99137.66
2022-11-26T10:26:46.597Z,99145.63
2022-11-26T10:29:22.808Z,99138.38
2022-11-26T10:31:56.307Z,99137.84
2022-11-26T10:34:31.337Z,99133.00
2022-11-26T10:37:01.367Z,99139.19
2022-11-26T10:39:29.256Z,99137.31
2022-11-26T10:41:57.811Z,99138.28
2022-11-26T10:44:40.246Z,99139.75
2022-11-26T10:47:31.343Z,99143.25
2022-11-26T10:50:46.018Z,99139.56
2022-11-26T10:53:07.309Z,99151.88
2022-11-26T10:55:39.323Z,99153.75
2022-11-26T10:58:15.876Z,99151.53
2022-11-26T11:00:47.089Z,99151.56
2022-11-26T11:03:38.149Z,99150.19
2022-11-26T11:06:27.942Z,99149.38
2022-11-26T11:08:56.186Z,99141.59
2022-11-26T11:11:26.955Z,99141.63
2022-11-26T11:13:55.618Z,99139.88
2022-11-26T11:16:28.469Z,99138.34
2022-11-26T11:19:00.196Z,99146.09
2022-11-26T11:21:34.482Z,99142.31
2022-11-26T11:24:17.566Z,99146.88
2022-11-26T11:26:47.358Z,99140.72
2022-11-26T11:29:32.919Z,99141.78
2022-11-26T11:32:04.491Z,99144.69
2022-11-26T11:34:38.390Z,99152.50
2022-11-26T11:37:19.215Z,99139.47
2022-11-26T11:39:47.307Z,99140.69
2022-11-26T11:42:23.801Z,99152.47
2022-11-26T11:44:53.228Z,99155.91
2022-11-26T11:47:37.305Z,99154.69
2022-11-26T11:50:21.116Z,99153.97
2022-11-26T11:52:57.582Z,99162.31
2022-11-26T11:55:36.815Z,99156.72
2022-11-26T11:58:30.906Z,99158.19
2022-11-26T12:01:08.020Z,99157.44
2022-11-26T12:03:59.496Z,99153.94
2022-11-26T12:06:40.453Z,99158.38
2022-11-26T12:09:18.319Z,99156.81
2022-11-26T12:11:54.951Z,99161.09
2022-11-26T12:14:27.382Z,99152.84
2022-11-26T12:17:01.479Z,99154.59
2022-11-26T12:19:39.422Z,99156.44
2022-11-26T12:22:16.353Z,99154.53
2022-11-26T12:24:51.252Z,99160.25
2022-11-26T12:27:31.069Z,99161.16
2022-11-26T12:30:02.906Z,99162.84
2022-11-26T12:32:37.257Z,99155.22
2022-11-26T12:35:12.236Z,99153.22
2022-11-26T12:37:43.365Z,99165.06
2022-11-26T12:40:24.787Z,99156.28
2022-11-26T12:42:59.828Z,99169.91
2022-11-26T12:45:41.569Z,99164.16
2022-11-26T12:48:19.525Z,99155.91
2022-11-26T12:50:52.834Z,99164.53
2022-11-26T12:53:35.034Z,99157.41
2022-11-26T12:56:15.333Z,99160.34
2022-11-26T12:58:53.040Z,99156.03
2022-11-26T13:01:21.219Z,99166.34
2022-11-26T13:03:49.500Z,99161.31
2022-11-26T13:06:30.427Z,99166.88
2022-11-26T13:09:09.115Z,99164.16
2022-11-26T13:11:44.338Z,99167.47
2022-11-26T13:14:18.775Z,99169.56
2022-11-26T13:16:55.392Z,99179.38
2022-11-26T13:19:31.699Z,99172.22
2022-11-26T13:22:14.542Z,99180.84
2022-11-26T13:25:06.454Z,99174.50
2022-11-26T13:27:50.713Z,99181.72
2022-11-26T13:30:22.362Z,99179.88
2022-11-26T13:33:27.744Z,99182.78
2022-11-26T13:36:15.331Z,99183.84
2022-11-26T13:38:53.721Z,99178.75
2022-11-26T13:41:40.457Z,99184.78
2022-11-26T13:44:38.824Z,99176.81
2022-11-26T13:47:11.087Z,99180.19
2022-11-26T13:49:44.355Z,99177.59
2022-11-26T13:52:16.898Z,99181.91
2022-11-26T13:54:50.143Z,99177.75
2022-11-26T13:57:22.837Z,99174.31
2022-11-26T13:59:52.601Z,99175.50
2022-11-26T14:02:44.592Z,99176.22
2022-11-26T14:05:15.580Z,99184.69
2022-11-26T14:07:44.481Z,99183.97
2022-11-26T14:10:41.542Z,99176.00
2022-11-26T14:13:16.153Z,99187.78
2022-11-26T14:15:59.002Z,99189.94
2022-11-26T14:19:03.040Z,99194.38
2022-11-26T14:21:31.618Z,99192.06
2022-11-26T14:24:02.541Z,99186.84
2022-11-26T14:26:34.504Z,99193.75
2022-11-26T14:29:17.450Z,99193.78
2022-11-26T14:31:51.808Z,99188.53
2022-11-26T14:34:29.778Z,99187.75
2022-11-26T14:36:59.343Z,99187.53
2022-11-26T14:39:28.956Z,99193.00
2022-11-26T14:42:05.326Z,99194.63
2022-11-26T14:44:35.756Z,99194.63
2022-11-26T14:47:12.203Z,99205.69
2022-11-26T14:49:42.758Z,99197.25
2022-11-26T14:52:19.979Z,99205.50
2022-11-26T14:54:51.597Z,99205.88
2022-11-26T14:57:24.641Z,99207.25
2022-11-26T15:00:02.457Z,99213.38
2022-11-26T15:02:32.321Z,99216.91
2022-11-26T15:05:02.779Z,99214.00
2022-11-26T15:07:32.409Z,99227.78
2022-11-26T15:10:06.819Z,99223.84
2022-11-26T15:12:37.389Z,99233.88
2022-11-26T15:15:10.904Z,99228.13
2022-11-26T15:17:44.152Z,99222.88
2022-11-26T15:20:16.880Z,99231.44
2022-11-26T15:22:51.030Z,99242.94
2022-11-26T15:25:21.940Z,99231.38
2022-11-26T15:27:55.263Z,99245.19
2022-11-26T15:30:27.405Z,99232.81
2022-11-26T15:33:00.899Z,99238.81
2022-11-26T15:35:30.052Z,99247.91
2022-11-26T15:37:58.498Z,99239.97
2022-11-26T15:40:31.539Z,99239.59
2022-11-26T15:43:03.254Z,99236.69
2022-11-26T15:45:39.209Z,99235.50
2022-11-26T15:48:27.199Z,99250.09
2022-11-26T15:51:00.750Z,99251.94
2022-11-26T15:53:33.636Z,99249.25
2022-11-26T15:56:02.672Z,99247.97
2022-11-26T15:58:34.939Z,99238.88
2022-11-26T16:01:08.228Z,99249.69
2022-11-26T16:03:43.157Z,99250.03
2022-11-26T16:06:29.088Z,99256.66
2022-11-26T16:09:00.666Z,99245.78
2022-11-26T16:11:29.121Z,99255.91
2022-11-26T16:13:57.016Z,99258.72
2022-11-26T16:16:28.042Z,99262.66
2022-11-26T16:18:59.378Z,99256.66
2022-11-26T16:21:29.986Z,99260.19
2022-11-26T16:24:00.572Z,99268.06
2022-11-26T16:26:29.620Z,99268.66
2022-11-26T16:28:57.518Z,99272.88
2022-11-26T16:31:26.898Z,99276.47
2022-11-26T16:33:54.874Z,99272.78
2022-11-26T16:36:25.343Z,99275.59
2022-11-26T16:38:54.029Z,99282.28
2022-11-26T16:41:23.546Z,99284.63
2022-11-26T16:43:51.629Z,99279.63
2022-11-26T16:46:23.451Z,99290.03
2022-11-26T16:48:53.531Z,99284.97
2022-11-26T16:51:22.050Z,99286.88
2022-11-26T16:53:50.640Z,99287.81
2022-11-26T16:56:23.706Z,99296.03
2022-11-26T16:58:52.537Z,99289.13
2022-11-26T17:01:20.739Z,99289.78
2022-11-26T17:03:48.708Z,99298.59
2022-11-26T17:06:25.195Z,99304.84
2022-11-26T17:08:54.683Z,99294.97
2022-11-26T17:11:22.829Z,99308.41
2022-11-26T17:13:51.178Z,99309.38
2022-11-26T17:16:20.618Z,99310.03
2022-11-26T17:18:49.372Z,99306.31
2022-11-26T17:21:18.713Z,99316.09
2022-11-26T17:23:46.737Z,99306.19
2022-11-26T17:26:19.648Z,99331.75
2022-11-26T17:28:48.184Z,99315.41
2022-11-26T17:31:16.410Z,99324.63
2022-11-26T17:33:44.650Z,99318.94
2022-11-26T17:36:19.324Z,99317.66
2022-11-26T17:38:47.858Z,99318.41
2022-11-26T17:41:16.561Z,99321.16
2022-11-26T17:43:44.876Z,99324.31
2022-11-26T17:46:22.211Z,99334.16
2022-11-26T17:48:55.558Z,99331.53
2022-11-26T17:51:27.617Z,99327.34
2022-11-26T17:53:55.540Z,99324.44
2022-11-26T17:56:26.991Z,99340.09
2022-11-26T17:58:55.873Z,99337.78
2022-11-26T18:01:23.970Z,99338.22
2022-11-26T18:03:52.603Z,99343.88
2022-11-26T18:06:27.736Z,99347.22
2022-11-26T18:08:57.025Z,99338.69
2022-11-26T18:11:43.531Z,99347.44
2022-11-26T18:14:11.812Z,99345.84
2022-11-26T18:16:40.353Z,99348.91
2022-11-26T18:19:10.584Z,99344.72
2022-11-26T18:21:39.190Z,99349.84
2022-11-26T18:24:09.736Z,99340.16
2022-11-26T18:26:38.716Z,99340.69
2022-11-26T18:29:07.231Z,99354.84
2022-11-26T18:31:39.487Z,99352.94
2022-11-26T18:34:08.847Z,99343.13
2022-11-26T18:36:36.784Z,99341.09
2022-11-26T18:39:05.197Z,99342.38
2022-11-26T18:41:34.929Z,99345.78
2022-11-26T18:44:04.114Z,99341.22
2022-11-26T18:46:32.773Z,99352.16
2022-11-26T18:49:00.859Z,99366.59
2022-11-26T18:51:28.865Z,99365.38
2022-11-26T18:53:56.767Z,99366.50
2022-11-26T18:56:26.021Z,99377.53
2022-11-26T18:58:55.292Z,99377.66
2022-11-26T19:01:25.394Z,99371.06
2022-11-26T19:03:53.721Z,99381.38
2022-11-26T19:06:24.270Z,99384.78
2022-11-26T19:08:57.606Z,99389.03
2022-11-26T19:11:26.590Z,99393.81
2022-11-26T19:13:56.952Z,99397.34
2022-11-26T19:16:26.104Z,99399.84
2022-11-26T19:18:54.793Z,99407.97
2022-11-26T19:21:25.230Z,99400.84
2022-11-26T19:23:54.429Z,99405.69
2022-11-26T19:26:22.672Z,99412.09
2022-11-26T19:28:51.210Z,99412.47
2022-11-26T19:31:21.715Z,99412.63
2022-11-26T19:33:54.701Z,99414.41
2022-11-26T19:36:23.395Z,99420.28
2022-11-26T19:38:56.103Z,99425.28
2022-11-26T19:41:26.054Z,99432.09
2022-11-26T19:43:54.515Z,99433.41
2022-11-26T19:46:25.993Z,99445.78
2022-11-26T19:48:55.651Z,99442.09
2022-11-26T19:51:25.277Z,99445.81
2022-11-26T19:53:55.940Z,99445.88
2022-11-26T19:56:25.774Z,99449.75
2022-11-26T19:58:54.926Z,99451.06
2022-11-26T20:01:25.957Z,99456.13
2022-11-26T20:03:54.004Z,99452.78
2022-11-26T20:06:23.656Z,99453.59
2022-11-26T20:08:51.552Z,99459.63
2022-11-26T20:11:19.835Z,99457.63
2022-11-26T20:13:50.195Z,99467.47
2022-11-26T20:16:20.441Z,99459.59
2022-11-26T20:18:50.509Z,99458.28
2022-11-26T20:21:20.850Z,99465.63
2022-11-26T20:23:50.118Z,99469.03
2022-11-26T20:26:19.826Z,99473.94
2022-11-26T20:28:47.809Z,99469.78
2022-11-26T20:31:21.894Z,99477.75
2022-11-26T20:33:53.014Z,99494.28
2022-11-26T20:36:23.076Z,99489.00
2022-11-26T20:38:53.636Z,99490.19
2022-11-26T20:41:21.808Z,99474.88
2022-11-26T20:43:54.881Z,99494.44
2022-11-26T20:46:24.886Z,99486.88
2022-11-26T20:48:55.688Z,99488.13
2022-11-26T20:51:24.157Z,99483.88
2022-11-26T20:53:52.983Z,99487.41
2022-11-26T20:56:22.483Z,99480.00
2022-11-26T20:58:52.579Z,99495.13
2022-11-26T21:01:22.937Z,99493.56
2022-11-26T21:03:51.240Z,99484.28
2022-11-26T21:06:28.972Z,99490.75
2022-11-26T21:08:58.112Z,99483.22
2022-11-26T21:11:26.094Z,99494.13
2022-11-26T21:13:53.985Z,99490.81
2022-11-26T21:16:23.356Z,99490.31
2022-11-26T21:18:54.204Z,99491.72
2022-11-26T21:21:24.764Z,99493.56
2022-11-26T21:23:52.700Z,99488.00
2022-11-26T21:26:22.720Z,99485.25
2022-11-26T21:28:52.584Z,99491.31
2022-11-26T21:31:22.002Z,99495.72
2022-11-26T21:33:56.168Z,99496.31
2022-11-26T21:36:26.706Z,99493.53
2022-11-26T21:38:55.144Z,99495.31
2022-11-26T21:41:24.144Z,99494.78
2022-11-26T21:43:52.887Z,99504.16
2022-11-26T21:46:22.810Z,99503.41
2022-11-26T21:48:52.653Z,99510.31
2022-11-26T21:51:21.496Z,99507.19
2022-11-26T21:53:51.362Z,99504.91
2022-11-26T21:56:20.946Z,99521.03
2022-11-26T21:58:49.431Z,99516.44
2022-11-26T22:01:20.081Z,99526.78
2022-11-26T22:03:50.932Z,99522.94
2022-11-26T22:06:20.957Z,99523.97
2022-11-26T22:08:50.705Z,99523.72
2022-11-26T22:11:20.282Z,99518.75
2022-11-26T22:13:48.901Z,99522.78
2022-11-26T22:16:19.171Z,99527.84
2022-11-26T22:18:47.698Z,99530.81
2022-11-26T22:21:18.044Z,99531.06
2022-11-26T22:23:46.318Z,99526.91
2022-11-26T22:26:15.981Z,99533.22
2022-11-26T22:28:43.986Z,99535.84
2022-11-26T22:31:13.478Z,99533.28
2022-11-26T22:33:42.122Z,99545.16
2022-11-26T22:36:10.732Z,99542.66
2022-11-26T22:38:39.880Z,99542.41
2022-11-26T22:41:09.355Z,99547.16
2022-11-26T22:43:38.931Z,99557.47
2022-11-26T22:46:07.863Z,99552.22
2022-11-26T22:48:36.421Z,99556.00
2022-11-26T22:51:05.211Z,99549.53
2022-11-26T22:53:34.431Z,99546.66
2022-11-26T22:56:04.015Z,99549.75
2022-11-26T22:58:33.681Z,99545.16
2022-11-26T23:01:05.405Z,99549.09
2022-11-26T23:03:36.185Z,99549.94
2022-11-26T23:06:06.024Z,99547.53
2022-11-26T23:08:34.437Z,99545.53
2022-11-26T23:11:16.909Z,99546.53
2022-11-26T23:13:47.120Z,99538.44
2022-11-26T23:16:17.699Z,99551.59
2022-11-26T23:18:45.868Z,99548.34
2022-11-26T23:21:15.988Z,99555.66
2022-11-26T23:23:44.407Z,99544.22
2022-11-26T23:26:15.081Z,99549.91
2022-11-26T23:28:43.052Z,99542.97
2022-11-26T23:31:15.053Z,99542.63
2022-11-26T23:33:44.487Z,99549.69
2022-11-26T23:36:13.010Z,99545.78
2022-11-26T23:38:41.321Z,99541.22
2022-11-26T23:41:09.884Z,99547.25
2022-11-26T23:43:39.215Z,99550.31
2022-11-26T23:46:08.921Z,99554.59
2022-11-26T23:48:37.341Z,99554.25
2022-11-26T23:51:09.729Z,99556.28
2022-11-26T23:53:38.280Z,99554.13
2022-11-26T23:56:08.606Z,99553.44
2022-11-26T23:58:36.555Z,99553.66
